sensor_id;sensor_type;location;lat;lon;timestamp;P1;durP1;ratioP1;P2;durP2;ratioP2
4313;SDS011;2170;48.794;9.182;2024-03-08T00:01:24;31.00;;;22.27;;
4313;SDS011;2170;48.794;9.182;2024-03-08T00:03:51;29.23;;;22.60;;
4313;SDS011;2170;48.794;9.182;2024-03-08T00:06:18;25.97;;;21.07;;
4313;SDS011;2170;48.794;9.182;2024-03-08T00:08:44;30.33;;;22.17;;
4313;SDS011;2170;48.794;9.182;2024-03-08T00:11:11;25.07;;;20.40;;
4313;SDS011;2170;48.794;9.182;2024-03-08T00:13:38;26.87;;;21.50;;
4313;SDS011;2170;48.794;9.182;2024-03-08T00:16:05;28.20;;;21.63;;
4313;SDS011;2170;48.794;9.182;2024-03-08T00:18:34;29.00;;;22.23;;
4313;SDS011;2170;48.794;9.182;2024-03-08T00:21:00;31.00;;;22.27;;
4313;SDS011;2170;48.794;9.182;2024-03-08T00:23:27;31.37;;;23.00;;
4313;SDS011;2170;48.794;9.182;2024-03-08T00:25:54;28.00;;;21.40;;
4313;SDS011;2170;48.794;9.182;2024-03-08T00:28:21;29.60;;;21.93;;
4313;SDS011;2170;48.794;9.182;2024-03-08T00:30:50;31.17;;;21.73;;
4313;SDS011;2170;48.794;9.182;2024-03-08T00:33:16;29.67;;;22.23;;
4313;SDS011;2170;48.794;9.182;2024-03-08T00:35:44;28.13;;;20.93;;
4313;SDS011;2170;48.794;9.182;2024-03-08T00:38:11;28.47;;;21.20;;
4313;SDS011;2170;48.794;9.182;2024-03-08T00:40:38;30.23;;;22.67;;
4313;SDS011;2170;48.794;9.182;2024-03-08T00:43:05;30.30;;;22.93;;
4313;SDS011;2170;48.794;9.182;2024-03-08T00:45:32;28.73;;;21.70;;
4313;SDS011;2170;48.794;9.182;2024-03-08T00:47:59;25.37;;;21.50;;
4313;SDS011;2170;48.794;9.182;2024-03-08T00:50:25;28.80;;;22.70;;
4313;SDS011;2170;48.794;9.182;2024-03-08T00:52:53;28.57;;;21.87;;
4313;SDS011;2170;48.794;9.182;2024-03-08T00:55:21;31.37;;;22.30;;
4313;SDS011;2170;48.794;9.182;2024-03-08T00:57:48;29.30;;;22.37;;
4313;SDS011;2170;48.794;9.182;2024-03-08T01:00:15;26.27;;;21.83;;
4313;SDS011;2170;48.794;9.182;2024-03-08T01:02:43;26.07;;;21.07;;
4313;SDS011;2170;48.794;9.182;2024-03-08T01:05:10;28.87;;;21.13;;
4313;SDS011;2170;48.794;9.182;2024-03-08T01:07:36;30.10;;;22.23;;
4313;SDS011;2170;48.794;9.182;2024-03-08T01:10:05;27.43;;;21.53;;
4313;SDS011;2170;48.794;9.182;2024-03-08T01:12:34;26.60;;;20.53;;
4313;SDS011;2170;48.794;9.182;2024-03-08T01:15:01;25.60;;;20.70;;
4313;SDS011;2170;48.794;9.182;2024-03-08T01:17:28;26.83;;;20.53;;
4313;SDS011;2170;48.794;9.182;2024-03-08T01:19:56;29.50;;;21.83;;
4313;SDS011;2170;48.794;9.182;2024-03-08T01:22:23;27.80;;;20.97;;
4313;SDS011;2170;48.794;9.182;2024-03-08T01:24:50;27.53;;;20.63;;
4313;SDS011;2170;48.794;9.182;2024-03-08T01:27:18;33.90;;;23.70;;
4313;SDS011;2170;48.794;9.182;2024-03-08T01:29:44;27.90;;;20.70;;
4313;SDS011;2170;48.794;9.182;2024-03-08T01:32:11;28.97;;;21.50;;
4313;SDS011;2170;48.794;9.182;2024-03-08T01:34:38;29.00;;;21.40;;
4313;SDS011;2170;48.794;9.182;2024-03-08T01:37:05;28.30;;;21.60;;
4313;SDS011;2170;48.794;9.182;2024-03-08T01:39:31;26.47;;;21.00;;
4313;SDS011;2170;48.794;9.182;2024-03-08T01:41:58;29.57;;;22.30;;
4313;SDS011;2170;48.794;9.182;2024-03-08T01:44:27;29.80;;;21.50;;
4313;SDS011;2170;48.794;9.182;2024-03-08T01:46:53;27.57;;;20.70;;
4313;SDS011;2170;48.794;9.182;2024-03-08T01:49:21;24.80;;;20.17;;
4313;SDS011;2170;48.794;9.182;2024-03-08T01:51:48;28.13;;;21.37;;
4313;SDS011;2170;48.794;9.182;2024-03-08T01:54:16;27.80;;;21.37;;
4313;SDS011;2170;48.794;9.182;2024-03-08T01:56:45;30.40;;;22.90;;
4313;SDS011;2170;48.794;9.182;2024-03-08T01:59:12;28.40;;;21.50;;
4313;SDS011;2170;48.794;9.182;2024-03-08T02:01:41;31.23;;;21.40;;
4313;SDS011;2170;48.794;9.182;2024-03-08T02:04:08;27.00;;;22.37;;
4313;SDS011;2170;48.794;9.182;2024-03-08T02:06:35;28.13;;;20.63;;
4313;SDS011;2170;48.794;9.182;2024-03-08T02:09:03;27.07;;;20.47;;
4313;SDS011;2170;48.794;9.182;2024-03-08T02:11:31;28.70;;;20.47;;
4313;SDS011;2170;48.794;9.182;2024-03-08T02:13:59;29.57;;;21.83;;
4313;SDS011;2170;48.794;9.182;2024-03-08T02:16:26;28.20;;;21.03;;
4313;SDS011;2170;48.794;9.182;2024-03-08T02:18:54;29.30;;;22.10;;
4313;SDS011;2170;48.794;9.182;2024-03-08T02:21:22;28.53;;;21.07;;
4313;SDS011;2170;48.794;9.182;2024-03-08T02:23:49;30.50;;;21.70;;
4313;SDS011;2170;48.794;9.182;2024-03-08T02:26:17;27.33;;;20.83;;
4313;SDS011;2170;48.794;9.182;2024-03-08T02:28:44;28.30;;;21.10;;
4313;SDS011;2170;48.794;9.182;2024-03-08T02:31:11;28.10;;;21.50;;
4313;SDS011;2170;48.794;9.182;2024-03-08T02:33:37;27.63;;;21.10;;
4313;SDS011;2170;48.794;9.182;2024-03-08T02:36:04;27.87;;;20.67;;
4313;SDS011;2170;48.794;9.182;2024-03-08T02:38:33;27.60;;;21.80;;
4313;SDS011;2170;48.794;9.182;2024-03-08T02:41:00;30.70;;;20.67;;
4313;SDS011;2170;48.794;9.182;2024-03-08T02:43:28;27.23;;;21.20;;
4313;SDS011;2170;48.794;9.182;2024-03-08T02:45:55;32.20;;;20.40;;
4313;SDS011;2170;48.794;9.182;2024-03-08T02:48:22;29.20;;;21.10;;
4313;SDS011;2170;48.794;9.182;2024-03-08T02:50:49;26.10;;;20.17;;
4313;SDS011;2170;48.794;9.182;2024-03-08T02:53:16;27.37;;;20.40;;
4313;SDS011;2170;48.794;9.182;2024-03-08T02:55:45;30.07;;;19.40;;
4313;SDS011;2170;48.794;9.182;2024-03-08T02:58:12;27.70;;;20.80;;
4313;SDS011;2170;48.794;9.182;2024-03-08T03:00:39;25.87;;;19.20;;
4313;SDS011;2170;48.794;9.182;2024-03-08T03:03:06;28.30;;;22.07;;
4313;SDS011;2170;48.794;9.182;2024-03-08T03:05:33;27.80;;;19.77;;
4313;SDS011;2170;48.794;9.182;2024-03-08T03:08:00;23.80;;;18.93;;
4313;SDS011;2170;48.794;9.182;2024-03-08T03:10:28;27.00;;;19.57;;
4313;SDS011;2170;48.794;9.182;2024-03-08T03:12:57;27.00;;;19.70;;
4313;SDS011;2170;48.794;9.182;2024-03-08T03:15:24;28.77;;;21.30;;
4313;SDS011;2170;48.794;9.182;2024-03-08T03:17:50;23.63;;;19.37;;
4313;SDS011;2170;48.794;9.182;2024-03-08T03:20:17;27.20;;;19.47;;
4313;SDS011;2170;48.794;9.182;2024-03-08T03:22:51;25.60;;;19.47;;
4313;SDS011;2170;48.794;9.182;2024-03-08T03:25:18;27.40;;;20.03;;
4313;SDS011;2170;48.794;9.182;2024-03-08T03:27:51;28.23;;;19.37;;
4313;SDS011;2170;48.794;9.182;2024-03-08T03:30:19;23.67;;;19.20;;
4313;SDS011;2170;48.794;9.182;2024-03-08T03:32:46;25.30;;;19.73;;
4313;SDS011;2170;48.794;9.182;2024-03-08T03:35:14;26.90;;;19.70;;
4313;SDS011;2170;48.794;9.182;2024-03-08T03:37:41;23.50;;;18.87;;
4313;SDS011;2170;48.794;9.182;2024-03-08T03:40:16;24.47;;;19.47;;
4313;SDS011;2170;48.794;9.182;2024-03-08T03:42:43;25.80;;;19.57;;
4313;SDS011;2170;48.794;9.182;2024-03-08T03:45:10;23.30;;;18.97;;
4313;SDS011;2170;48.794;9.182;2024-03-08T03:47:42;29.33;;;18.87;;
4313;SDS011;2170;48.794;9.182;2024-03-08T03:50:09;24.53;;;17.90;;
4313;SDS011;2170;48.794;9.182;2024-03-08T03:52:35;26.63;;;19.40;;
4313;SDS011;2170;48.794;9.182;2024-03-08T03:55:02;26.67;;;19.67;;
4313;SDS011;2170;48.794;9.182;2024-03-08T03:57:30;23.73;;;18.50;;
4313;SDS011;2170;48.794;9.182;2024-03-08T03:59:57;26.53;;;19.40;;
4313;SDS011;2170;48.794;9.182;2024-03-08T04:02:24;25.77;;;18.50;;
4313;SDS011;2170;48.794;9.182;2024-03-08T04:04:52;28.07;;;19.30;;
4313;SDS011;2170;48.794;9.182;2024-03-08T04:07:20;23.70;;;17.70;;
4313;SDS011;2170;48.794;9.182;2024-03-08T04:09:47;24.07;;;19.30;;
4313;SDS011;2170;48.794;9.182;2024-03-08T04:12:14;23.13;;;17.93;;
4313;SDS011;2170;48.794;9.182;2024-03-08T04:14:41;23.90;;;17.33;;
4313;SDS011;2170;48.794;9.182;2024-03-08T04:17:09;28.17;;;18.47;;
4313;SDS011;2170;48.794;9.182;2024-03-08T04:19:36;22.93;;;18.33;;
4313;SDS011;2170;48.794;9.182;2024-03-08T04:22:05;24.80;;;19.60;;
4313;SDS011;2170;48.794;9.182;2024-03-08T04:24:32;27.47;;;20.00;;
4313;SDS011;2170;48.794;9.182;2024-03-08T04:26:59;28.80;;;20.00;;
4313;SDS011;2170;48.794;9.182;2024-03-08T04:29:26;23.70;;;18.67;;
4313;SDS011;2170;48.794;9.182;2024-03-08T04:31:52;25.93;;;19.17;;
4313;SDS011;2170;48.794;9.182;2024-03-08T04:34:19;23.53;;;18.50;;
4313;SDS011;2170;48.794;9.182;2024-03-08T04:36:46;26.37;;;19.60;;
4313;SDS011;2170;48.794;9.182;2024-03-08T04:39:14;28.50;;;21.80;;
4313;SDS011;2170;48.794;9.182;2024-03-08T04:41:41;26.83;;;20.60;;
4313;SDS011;2170;48.794;9.182;2024-03-08T04:44:09;27.70;;;20.17;;
4313;SDS011;2170;48.794;9.182;2024-03-08T04:46:37;23.87;;;19.47;;
4313;SDS011;2170;48.794;9.182;2024-03-08T04:49:04;35.13;;;20.80;;
4313;SDS011;2170;48.794;9.182;2024-03-08T04:51:32;26.50;;;19.43;;
4313;SDS011;2170;48.794;9.182;2024-03-08T04:53:59;31.00;;;21.23;;
4313;SDS011;2170;48.794;9.182;2024-03-08T04:56:27;24.20;;;19.60;;
4313;SDS011;2170;48.794;9.182;2024-03-08T04:58:53;30.73;;;20.40;;
4313;SDS011;2170;48.794;9.182;2024-03-08T05:01:20;34.63;;;25.10;;
4313;SDS011;2170;48.794;9.182;2024-03-08T05:03:47;27.80;;;20.97;;
4313;SDS011;2170;48.794;9.182;2024-03-08T05:06:15;28.03;;;21.43;;
4313;SDS011;2170;48.794;9.182;2024-03-08T05:08:41;26.40;;;19.87;;
4313;SDS011;2170;48.794;9.182;2024-03-08T05:11:08;26.97;;;20.60;;
4313;SDS011;2170;48.794;9.182;2024-03-08T05:13:36;30.03;;;20.10;;
4313;SDS011;2170;48.794;9.182;2024-03-08T05:16:04;30.07;;;21.47;;
4313;SDS011;2170;48.794;9.182;2024-03-08T05:18:32;26.30;;;20.07;;
4313;SDS011;2170;48.794;9.182;2024-03-08T05:21:01;29.60;;;20.53;;
4313;SDS011;2170;48.794;9.182;2024-03-08T05:23:29;27.60;;;20.90;;
4313;SDS011;2170;48.794;9.182;2024-03-08T05:25:55;30.47;;;21.03;;
4313;SDS011;2170;48.794;9.182;2024-03-08T05:28:22;28.23;;;21.60;;
4313;SDS011;2170;48.794;9.182;2024-03-08T05:30:50;27.63;;;20.27;;
4313;SDS011;2170;48.794;9.182;2024-03-08T05:33:17;30.67;;;22.67;;
4313;SDS011;2170;48.794;9.182;2024-03-08T05:35:44;27.67;;;21.27;;
4313;SDS011;2170;48.794;9.182;2024-03-08T05:38:11;28.83;;;20.33;;
4313;SDS011;2170;48.794;9.182;2024-03-08T05:40:38;28.43;;;22.23;;
4313;SDS011;2170;48.794;9.182;2024-03-08T05:43:04;35.67;;;25.87;;
4313;SDS011;2170;48.794;9.182;2024-03-08T05:45:31;36.37;;;27.43;;
4313;SDS011;2170;48.794;9.182;2024-03-08T05:48:00;27.57;;;21.37;;
4313;SDS011;2170;48.794;9.182;2024-03-08T05:50:27;26.50;;;21.23;;
4313;SDS011;2170;48.794;9.182;2024-03-08T05:52:54;30.90;;;21.40;;
4313;SDS011;2170;48.794;9.182;2024-03-08T05:55:20;29.40;;;21.60;;
4313;SDS011;2170;48.794;9.182;2024-03-08T05:57:49;30.93;;;21.37;;
4313;SDS011;2170;48.794;9.182;2024-03-08T06:00:17;34.23;;;22.50;;
4313;SDS011;2170;48.794;9.182;2024-03-08T06:02:44;30.47;;;21.60;;
4313;SDS011;2170;48.794;9.182;2024-03-08T06:05:12;28.37;;;22.30;;
4313;SDS011;2170;48.794;9.182;2024-03-08T06:07:39;25.77;;;19.20;;
4313;SDS011;2170;48.794;9.182;2024-03-08T06:10:07;37.30;;;23.10;;
4313;SDS011;2170;48.794;9.182;2024-03-08T06:12:36;31.20;;;23.93;;
4313;SDS011;2170;48.794;9.182;2024-03-08T06:15:05;29.40;;;21.93;;
4313;SDS011;2170;48.794;9.182;2024-03-08T06:17:33;28.60;;;22.33;;
4313;SDS011;2170;48.794;9.182;2024-03-08T06:20:00;28.87;;;22.90;;
4313;SDS011;2170;48.794;9.182;2024-03-08T06:22:28;27.93;;;20.97;;
4313;SDS011;2170;48.794;9.182;2024-03-08T06:24:55;28.17;;;22.10;;
4313;SDS011;2170;48.794;9.182;2024-03-08T06:27:22;29.07;;;23.17;;
4313;SDS011;2170;48.794;9.182;2024-03-08T06:29:49;33.40;;;24.70;;
4313;SDS011;2170;48.794;9.182;2024-03-08T06:32:15;28.70;;;22.70;;
4313;SDS011;2170;48.794;9.182;2024-03-08T06:34:42;30.33;;;23.30;;
4313;SDS011;2170;48.794;9.182;2024-03-08T06:37:09;32.60;;;24.03;;
4313;SDS011;2170;48.794;9.182;2024-03-08T06:39:37;32.50;;;23.33;;
4313;SDS011;2170;48.794;9.182;2024-03-08T06:42:03;30.90;;;22.57;;
4313;SDS011;2170;48.794;9.182;2024-03-08T06:44:31;31.43;;;22.73;;
4313;SDS011;2170;48.794;9.182;2024-03-08T06:46:57;28.80;;;22.13;;
4313;SDS011;2170;48.794;9.182;2024-03-08T06:49:25;32.40;;;23.47;;
4313;SDS011;2170;48.794;9.182;2024-03-08T06:51:52;30.47;;;23.10;;
4313;SDS011;2170;48.794;9.182;2024-03-08T06:54:18;31.67;;;23.10;;
4313;SDS011;2170;48.794;9.182;2024-03-08T06:56:51;28.50;;;22.87;;
4313;SDS011;2170;48.794;9.182;2024-03-08T06:59:17;28.23;;;22.90;;
4313;SDS011;2170;48.794;9.182;2024-03-08T07:01:44;26.87;;;21.53;;
4313;SDS011;2170;48.794;9.182;2024-03-08T07:04:11;28.67;;;21.23;;
4313;SDS011;2170;48.794;9.182;2024-03-08T07:06:38;29.27;;;21.90;;
4313;SDS011;2170;48.794;9.182;2024-03-08T07:09:05;31.77;;;23.30;;
4313;SDS011;2170;48.794;9.182;2024-03-08T07:11:32;29.37;;;22.90;;
4313;SDS011;2170;48.794;9.182;2024-03-08T07:14:01;32.10;;;23.37;;
4313;SDS011;2170;48.794;9.182;2024-03-08T07:16:30;33.00;;;22.33;;
4313;SDS011;2170;48.794;9.182;2024-03-08T07:18:57;30.10;;;21.93;;
4313;SDS011;2170;48.794;9.182;2024-03-08T07:21:24;31.33;;;22.40;;
4313;SDS011;2170;48.794;9.182;2024-03-08T07:23:51;33.33;;;23.23;;
4313;SDS011;2170;48.794;9.182;2024-03-08T07:26:38;31.20;;;22.97;;
4313;SDS011;2170;48.794;9.182;2024-03-08T07:29:06;31.70;;;22.67;;
4313;SDS011;2170;48.794;9.182;2024-03-08T07:31:33;27.40;;;21.20;;
4313;SDS011;2170;48.794;9.182;2024-03-08T07:34:10;28.57;;;21.47;;
4313;SDS011;2170;48.794;9.182;2024-03-08T07:36:37;24.60;;;19.53;;
4313;SDS011;2170;48.794;9.182;2024-03-08T07:39:04;23.50;;;20.00;;
4313;SDS011;2170;48.794;9.182;2024-03-08T07:41:36;24.57;;;19.17;;
4313;SDS011;2170;48.794;9.182;2024-03-08T07:44:05;32.30;;;21.17;;
4313;SDS011;2170;48.794;9.182;2024-03-08T07:46:33;28.97;;;21.47;;
4313;SDS011;2170;48.794;9.182;2024-03-08T07:49:00;26.47;;;20.03;;
4313;SDS011;2170;48.794;9.182;2024-03-08T07:51:28;30.70;;;22.03;;
4313;SDS011;2170;48.794;9.182;2024-03-08T07:53:55;26.30;;;20.33;;
4313;SDS011;2170;48.794;9.182;2024-03-08T07:56:22;26.87;;;21.43;;
4313;SDS011;2170;48.794;9.182;2024-03-08T07:58:50;23.80;;;19.83;;
4313;SDS011;2170;48.794;9.182;2024-03-08T08:01:19;25.90;;;20.00;;
4313;SDS011;2170;48.794;9.182;2024-03-08T08:03:46;24.23;;;19.73;;
4313;SDS011;2170;48.794;9.182;2024-03-08T08:06:14;28.00;;;20.57;;
4313;SDS011;2170;48.794;9.182;2024-03-08T08:08:41;27.67;;;20.50;;
4313;SDS011;2170;48.794;9.182;2024-03-08T08:11:08;25.97;;;20.60;;
4313;SDS011;2170;48.794;9.182;2024-03-08T08:13:36;25.60;;;20.30;;
4313;SDS011;2170;48.794;9.182;2024-03-08T08:16:04;25.27;;;19.73;;
4313;SDS011;2170;48.794;9.182;2024-03-08T08:18:33;24.07;;;18.97;;
4313;SDS011;2170;48.794;9.182;2024-03-08T08:21:01;26.90;;;20.60;;
4313;SDS011;2170;48.794;9.182;2024-03-08T08:23:27;25.73;;;20.23;;
4313;SDS011;2170;48.794;9.182;2024-03-08T08:25:54;25.70;;;20.07;;
4313;SDS011;2170;48.794;9.182;2024-03-08T08:28:21;29.63;;;21.27;;
4313;SDS011;2170;48.794;9.182;2024-03-08T08:30:48;26.97;;;21.50;;
4313;SDS011;2170;48.794;9.182;2024-03-08T08:33:15;28.10;;;19.37;;
4313;SDS011;2170;48.794;9.182;2024-03-08T08:35:43;22.00;;;18.50;;
4313;SDS011;2170;48.794;9.182;2024-03-08T08:38:09;26.50;;;19.33;;
4313;SDS011;2170;48.794;9.182;2024-03-08T08:40:36;23.80;;;18.80;;
4313;SDS011;2170;48.794;9.182;2024-03-08T08:43:03;25.80;;;19.23;;
4313;SDS011;2170;48.794;9.182;2024-03-08T08:45:30;28.87;;;18.47;;
4313;SDS011;2170;48.794;9.182;2024-03-08T08:47:58;27.50;;;20.80;;
4313;SDS011;2170;48.794;9.182;2024-03-08T08:50:25;24.27;;;19.23;;
4313;SDS011;2170;48.794;9.182;2024-03-08T08:52:54;24.23;;;19.37;;
4313;SDS011;2170;48.794;9.182;2024-03-08T08:55:22;20.60;;;17.83;;
4313;SDS011;2170;48.794;9.182;2024-03-08T08:57:50;23.90;;;18.20;;
4313;SDS011;2170;48.794;9.182;2024-03-08T09:00:18;22.07;;;17.97;;
4313;SDS011;2170;48.794;9.182;2024-03-08T09:02:45;24.20;;;20.17;;
4313;SDS011;2170;48.794;9.182;2024-03-08T09:05:13;23.40;;;18.30;;
4313;SDS011;2170;48.794;9.182;2024-03-08T09:07:41;27.47;;;18.10;;
4313;SDS011;2170;48.794;9.182;2024-03-08T09:10:10;24.47;;;18.33;;
4313;SDS011;2170;48.794;9.182;2024-03-08T09:12:39;23.63;;;19.13;;
4313;SDS011;2170;48.794;9.182;2024-03-08T09:15:06;23.20;;;18.03;;
4313;SDS011;2170;48.794;9.182;2024-03-08T09:17:35;24.70;;;19.73;;
4313;SDS011;2170;48.794;9.182;2024-03-08T09:20:04;28.90;;;20.30;;
4313;SDS011;2170;48.794;9.182;2024-03-08T09:22:32;22.27;;;17.53;;
4313;SDS011;2170;48.794;9.182;2024-03-08T09:24:59;24.70;;;19.17;;
4313;SDS011;2170;48.794;9.182;2024-03-08T09:27:27;22.17;;;19.20;;
4313;SDS011;2170;48.794;9.182;2024-03-08T09:29:55;24.07;;;17.70;;
4313;SDS011;2170;48.794;9.182;2024-03-08T09:32:21;25.67;;;19.40;;
4313;SDS011;2170;48.794;9.182;2024-03-08T09:34:48;22.60;;;18.83;;
4313;SDS011;2170;48.794;9.182;2024-03-08T09:37:15;22.60;;;18.33;;
4313;SDS011;2170;48.794;9.182;2024-03-08T09:39:50;23.57;;;18.37;;
4313;SDS011;2170;48.794;9.182;2024-03-08T09:42:37;24.00;;;18.80;;
4313;SDS011;2170;48.794;9.182;2024-03-08T09:45:10;22.77;;;18.37;;
4313;SDS011;2170;48.794;9.182;2024-03-08T09:47:44;25.73;;;19.17;;
4313;SDS011;2170;48.794;9.182;2024-03-08T09:50:23;23.67;;;19.43;;
4313;SDS011;2170;48.794;9.182;2024-03-08T09:52:55;21.93;;;17.90;;
4313;SDS011;2170;48.794;9.182;2024-03-08T09:55:36;19.97;;;16.93;;
4313;SDS011;2170;48.794;9.182;2024-03-08T09:58:10;21.97;;;18.17;;
4313;SDS011;2170;48.794;9.182;2024-03-08T10:01:02;24.10;;;17.50;;
4313;SDS011;2170;48.794;9.182;2024-03-08T10:03:31;22.30;;;18.23;;
4313;SDS011;2170;48.794;9.182;2024-03-08T10:06:06;21.97;;;17.40;;
4313;SDS011;2170;48.794;9.182;2024-03-08T10:08:44;21.50;;;18.00;;
4313;SDS011;2170;48.794;9.182;2024-03-08T10:11:28;23.53;;;18.20;;
4313;SDS011;2170;48.794;9.182;2024-03-08T10:13:59;21.87;;;18.83;;
4313;SDS011;2170;48.794;9.182;2024-03-08T10:16:28;22.60;;;17.73;;
4313;SDS011;2170;48.794;9.182;2024-03-08T10:18:56;19.23;;;17.00;;
4313;SDS011;2170;48.794;9.182;2024-03-08T10:21:47;24.00;;;18.10;;
4313;SDS011;2170;48.794;9.182;2024-03-08T10:24:24;20.53;;;16.73;;
4313;SDS011;2170;48.794;9.182;2024-03-08T10:26:52;21.50;;;17.17;;
4313;SDS011;2170;48.794;9.182;2024-03-08T10:29:20;19.90;;;16.60;;
4313;SDS011;2170;48.794;9.182;2024-03-08T10:31:47;22.93;;;17.93;;
4313;SDS011;2170;48.794;9.182;2024-03-08T10:34:15;19.80;;;17.47;;
4313;SDS011;2170;48.794;9.182;2024-03-08T10:36:41;21.23;;;18.10;;
4313;SDS011;2170;48.794;9.182;2024-03-08T10:39:13;23.57;;;18.73;;
4313;SDS011;2170;48.794;9.182;2024-03-08T10:41:52;19.10;;;16.97;;
4313;SDS011;2170;48.794;9.182;2024-03-08T10:44:39;21.63;;;17.00;;
4313;SDS011;2170;48.794;9.182;2024-03-08T10:47:15;21.90;;;17.47;;
4313;SDS011;2170;48.794;9.182;2024-03-08T10:49:50;22.03;;;17.53;;
4313;SDS011;2170;48.794;9.182;2024-03-08T10:52:20;19.63;;;16.00;;
4313;SDS011;2170;48.794;9.182;2024-03-08T10:54:47;18.07;;;15.43;;
4313;SDS011;2170;48.794;9.182;2024-03-08T10:57:14;20.40;;;17.90;;
4313;SDS011;2170;48.794;9.182;2024-03-08T10:59:45;21.77;;;16.87;;
4313;SDS011;2170;48.794;9.182;2024-03-08T11:02:14;24.00;;;17.90;;
4313;SDS011;2170;48.794;9.182;2024-03-08T11:04:46;22.30;;;16.17;;
4313;SDS011;2170;48.794;9.182;2024-03-08T11:07:15;19.87;;;16.87;;
4313;SDS011;2170;48.794;9.182;2024-03-08T11:09:44;20.87;;;16.80;;
4313;SDS011;2170;48.794;9.182;2024-03-08T11:12:19;20.00;;;16.33;;
4313;SDS011;2170;48.794;9.182;2024-03-08T11:14:51;22.50;;;17.33;;
4313;SDS011;2170;48.794;9.182;2024-03-08T11:17:25;19.40;;;17.30;;
4313;SDS011;2170;48.794;9.182;2024-03-08T11:20:08;21.10;;;15.90;;
4313;SDS011;2170;48.794;9.182;2024-03-08T11:22:40;22.53;;;16.67;;
4313;SDS011;2170;48.794;9.182;2024-03-08T11:25:10;22.20;;;17.43;;
4313;SDS011;2170;48.794;9.182;2024-03-08T11:28:06;21.67;;;16.90;;
4313;SDS011;2170;48.794;9.182;2024-03-08T11:30:35;18.67;;;16.20;;
4313;SDS011;2170;48.794;9.182;2024-03-08T11:33:03;19.90;;;17.60;;
4313;SDS011;2170;48.794;9.182;2024-03-08T11:35:30;26.47;;;18.97;;
4313;SDS011;2170;48.794;9.182;2024-03-08T11:37:57;19.47;;;16.33;;
4313;SDS011;2170;48.794;9.182;2024-03-08T11:40:25;25.57;;;18.97;;
4313;SDS011;2170;48.794;9.182;2024-03-08T11:42:52;27.47;;;21.77;;
4313;SDS011;2170;48.794;9.182;2024-03-08T11:45:20;19.10;;;16.50;;
4313;SDS011;2170;48.794;9.182;2024-03-08T11:47:48;19.20;;;16.67;;
4313;SDS011;2170;48.794;9.182;2024-03-08T11:50:15;19.90;;;16.80;;
4313;SDS011;2170;48.794;9.182;2024-03-08T11:52:43;19.73;;;16.70;;
4313;SDS011;2170;48.794;9.182;2024-03-08T11:55:11;22.30;;;17.67;;
4313;SDS011;2170;48.794;9.182;2024-03-08T11:57:37;20.47;;;16.43;;
4313;SDS011;2170;48.794;9.182;2024-03-08T12:00:05;24.77;;;18.90;;
4313;SDS011;2170;48.794;9.182;2024-03-08T12:02:32;19.97;;;17.13;;
4313;SDS011;2170;48.794;9.182;2024-03-08T12:05:04;24.13;;;17.47;;
4313;SDS011;2170;48.794;9.182;2024-03-08T12:07:34;18.40;;;16.47;;
4313;SDS011;2170;48.794;9.182;2024-03-08T12:10:17;20.50;;;17.10;;
4313;SDS011;2170;48.794;9.182;2024-03-08T12:12:43;23.07;;;18.10;;
4313;SDS011;2170;48.794;9.182;2024-03-08T12:15:11;18.33;;;16.43;;
4313;SDS011;2170;48.794;9.182;2024-03-08T12:17:39;20.47;;;16.93;;
4313;SDS011;2170;48.794;9.182;2024-03-08T12:20:16;20.57;;;16.53;;
4313;SDS011;2170;48.794;9.182;2024-03-08T12:22:46;21.60;;;18.10;;
4313;SDS011;2170;48.794;9.182;2024-03-08T12:25:13;20.83;;;17.70;;
4313;SDS011;2170;48.794;9.182;2024-03-08T12:27:41;21.60;;;17.80;;
4313;SDS011;2170;48.794;9.182;2024-03-08T12:30:18;21.90;;;17.77;;
4313;SDS011;2170;48.794;9.182;2024-03-08T12:32:48;21.53;;;18.00;;
4313;SDS011;2170;48.794;9.182;2024-03-08T12:35:21;18.63;;;16.67;;
4313;SDS011;2170;48.794;9.182;2024-03-08T12:37:48;21.70;;;17.37;;
4313;SDS011;2170;48.794;9.182;2024-03-08T12:40:16;23.50;;;19.87;;
4313;SDS011;2170;48.794;9.182;2024-03-08T12:42:43;20.23;;;17.47;;
4313;SDS011;2170;48.794;9.182;2024-03-08T12:45:12;22.40;;;18.70;;
4313;SDS011;2170;48.794;9.182;2024-03-08T12:47:39;20.77;;;18.57;;
4313;SDS011;2170;48.794;9.182;2024-03-08T12:50:07;22.70;;;18.70;;
4313;SDS011;2170;48.794;9.182;2024-03-08T12:52:36;22.30;;;18.47;;
4313;SDS011;2170;48.794;9.182;2024-03-08T12:55:05;21.40;;;19.10;;
4313;SDS011;2170;48.794;9.182;2024-03-08T12:57:33;21.70;;;18.20;;
4313;SDS011;2170;48.794;9.182;2024-03-08T13:00:01;20.10;;;18.00;;
4313;SDS011;2170;48.794;9.182;2024-03-08T13:02:29;20.73;;;18.00;;
4313;SDS011;2170;48.794;9.182;2024-03-08T13:04:57;21.90;;;18.00;;
4313;SDS011;2170;48.794;9.182;2024-03-08T13:07:25;21.73;;;18.73;;
4313;SDS011;2170;48.794;9.182;2024-03-08T13:09:53;19.67;;;17.67;;
4313;SDS011;2170;48.794;9.182;2024-03-08T13:12:22;20.17;;;17.63;;
4313;SDS011;2170;48.794;9.182;2024-03-08T13:14:49;20.90;;;17.47;;
4313;SDS011;2170;48.794;9.182;2024-03-08T13:17:16;21.93;;;18.90;;
4313;SDS011;2170;48.794;9.182;2024-03-08T13:19:43;21.67;;;18.60;;
4313;SDS011;2170;48.794;9.182;2024-03-08T13:22:10;21.13;;;18.83;;
4313;SDS011;2170;48.794;9.182;2024-03-08T13:24:38;22.63;;;18.13;;
4313;SDS011;2170;48.794;9.182;2024-03-08T13:27:07;19.60;;;17.60;;
4313;SDS011;2170;48.794;9.182;2024-03-08T13:29:44;19.33;;;17.23;;
4313;SDS011;2170;48.794;9.182;2024-03-08T13:32:13;20.63;;;18.43;;
4313;SDS011;2170;48.794;9.182;2024-03-08T13:34:40;22.60;;;19.57;;
4313;SDS011;2170;48.794;9.182;2024-03-08T13:37:07;21.10;;;18.90;;
4313;SDS011;2170;48.794;9.182;2024-03-08T13:39:35;21.47;;;18.97;;
4313;SDS011;2170;48.794;9.182;2024-03-08T13:42:06;20.97;;;18.27;;
4313;SDS011;2170;48.794;9.182;2024-03-08T13:44:34;21.10;;;18.40;;
4313;SDS011;2170;48.794;9.182;2024-03-08T13:47:01;23.17;;;19.70;;
4313;SDS011;2170;48.794;9.182;2024-03-08T13:49:29;21.13;;;18.83;;
4313;SDS011;2170;48.794;9.182;2024-03-08T13:51:56;21.63;;;18.47;;
4313;SDS011;2170;48.794;9.182;2024-03-08T13:54:24;22.87;;;18.40;;
4313;SDS011;2170;48.794;9.182;2024-03-08T13:56:52;20.43;;;18.27;;
4313;SDS011;2170;48.794;9.182;2024-03-08T13:59:21;21.77;;;18.87;;
4313;SDS011;2170;48.794;9.182;2024-03-08T14:01:48;23.57;;;18.50;;
4313;SDS011;2170;48.794;9.182;2024-03-08T14:04:15;20.63;;;18.10;;
4313;SDS011;2170;48.794;9.182;2024-03-08T14:06:43;18.60;;;16.57;;
4313;SDS011;2170;48.794;9.182;2024-03-08T14:09:10;21.20;;;18.27;;
4313;SDS011;2170;48.794;9.182;2024-03-08T14:11:41;21.37;;;19.10;;
4313;SDS011;2170;48.794;9.182;2024-03-08T14:14:09;23.40;;;18.90;;
4313;SDS011;2170;48.794;9.182;2024-03-08T14:16:38;19.20;;;17.20;;
4313;SDS011;2170;48.794;9.182;2024-03-08T14:19:06;20.87;;;18.67;;
4313;SDS011;2170;48.794;9.182;2024-03-08T14:21:35;19.80;;;17.80;;
4313;SDS011;2170;48.794;9.182;2024-03-08T14:24:04;20.20;;;18.20;;
4313;SDS011;2170;48.794;9.182;2024-03-08T14:26:31;18.60;;;16.50;;
4313;SDS011;2170;48.794;9.182;2024-03-08T14:28:59;19.17;;;17.13;;
4313;SDS011;2170;48.794;9.182;2024-03-08T14:31:25;20.70;;;18.10;;
4313;SDS011;2170;48.794;9.182;2024-03-08T14:33:54;19.50;;;17.50;;
4313;SDS011;2170;48.794;9.182;2024-03-08T14:36:22;20.00;;;17.77;;
4313;SDS011;2170;48.794;9.182;2024-03-08T14:38:50;19.47;;;17.37;;
4313;SDS011;2170;48.794;9.182;2024-03-08T14:41:17;19.97;;;17.87;;
4313;SDS011;2170;48.794;9.182;2024-03-08T14:43:44;20.17;;;18.07;;
4313;SDS011;2170;48.794;9.182;2024-03-08T14:46:12;19.63;;;16.77;;
4313;SDS011;2170;48.794;9.182;2024-03-08T14:48:42;21.70;;;19.27;;
4313;SDS011;2170;48.794;9.182;2024-03-08T14:51:10;21.50;;;19.30;;
4313;SDS011;2170;48.794;9.182;2024-03-08T14:53:39;19.83;;;17.50;;
4313;SDS011;2170;48.794;9.182;2024-03-08T14:56:06;20.30;;;17.97;;